This is the latest recevied weather packets stored in our database for station/object N1ORT. If no packets are shown the sender has not sent any weather packets the latest 10 day(s).
| Time | Temp. | Humidity | Pressure | Rain* | Wind** | Luminosity | Snow |
|---|---|---|---|---|---|---|---|
| 1777151235 | 11.11° C | 43% | 1015.3 hPa | 0 mm | - | 146 W/m² | - |
| 1777150930 | 11.67° C | 42% | 1015.2 hPa | 0 mm | - | 170 W/m² | - |
| 1777150630 | 11.67° C | 42% | 1015.2 hPa | 0 mm | - | 197 W/m² | - |
| 1777150326 | 11.11° C | 43% | 1015.2 hPa | 0 mm | - | 190 W/m² | - |
| 1777150024 | 11.67° C | 41% | 1015.2 hPa | 0 mm | - | 195 W/m² | - |
| 1777149719 | 11.67° C | 43% | 1015.4 hPa | 0 mm | - | 221 W/m² | - |
| 1777149416 | 11.67° C | 43% | 1015.1 hPa | 0 mm | - | 242 W/m² | - |
| 1777149112 | 11.67° C | 42% | 1015.2 hPa | 0 mm | - | 228 W/m² | - |
| 1777148806 | 11.67° C | 42% | 1014.9 hPa | 0 mm | - | 246 W/m² | - |
| 1777148504 | 12.22° C | 40% | 1015 hPa | 0 mm | - | 242 W/m² | - |
| 1777148199 | 11.67° C | 41% | 1015.2 hPa | 0 mm | - | 272 W/m² | - |
| 1777147896 | 11.67° C | 42% | 1015.1 hPa | 0 mm | - | 275 W/m² | - |
| 1777147592 | 11.67° C | 43% | 1015.3 hPa | 0 mm | - | 268 W/m² | - |
| 1777147288 | 11.67° C | 40% | 1015.1 hPa | 0 mm | - | 264 W/m² | - |
| 1777146984 | 11.67° C | 43% | 1015.2 hPa | 0 mm | - | 225 W/m² | - |
| 1777146680 | 12.22° C | 40% | 1015.1 hPa | 0 mm | - | 282 W/m² | - |
| 1777146375 | 12.22° C | 40% | 1014.9 hPa | 0 mm | - | 360 W/m² | - |
| 1777146072 | 12.78° C | 39% | 1015.2 hPa | 0 mm | - | 272 W/m² | - |
| 1777145768 | 12.78° C | 38% | 1014.8 hPa | 0 mm | - | 481 W/m² | - |
| 1777145458 | 12.22° C | 39% | 1015 hPa | 0 mm | - | 563 W/m² | - |
| 1777145153 | 12.22° C | 40% | 1014.9 hPa | 0 mm | - | 362 W/m² | - |
| 1777144849 | 11.67° C | 40% | 1015.1 hPa | 0 mm | - | 343 W/m² | - |
| 1777144547 | 11.67° C | 39% | 1015.1 hPa | 0 mm | - | 346 W/m² | - |
| 1777144244 | 11.67° C | 40% | 1015 hPa | 0 mm | - | 359 W/m² | - |
| 1777143940 | 12.78° C | 38% | 1015.1 hPa | 0 mm | - | 418 W/m² | - |
* Rain latest hour (hover to see other rain measurements)
** Current wind speed in m/s (hover to see current wind gust speed)